createdAt,value
2018-05-16T00:00:08.831Z,19.50
2018-05-16T00:01:08.819Z,19.39
2018-05-16T00:02:08.825Z,19.33
2018-05-16T00:03:08.827Z,19.31
2018-05-16T00:04:08.846Z,19.26
2018-05-16T00:05:08.852Z,19.11
2018-05-16T00:06:08.841Z,19.11
2018-05-16T00:07:08.855Z,19.11
2018-05-16T00:08:08.850Z,19.11
2018-05-16T00:09:08.860Z,19.22
2018-05-16T00:10:08.860Z,19.04
2018-05-16T00:11:08.861Z,18.99
2018-05-16T00:12:08.864Z,18.98
2018-05-16T00:13:08.870Z,18.92
2018-05-16T00:14:08.874Z,18.98
2018-05-16T00:15:08.875Z,18.82
2018-05-16T00:18:14.613Z,18.66
2018-05-16T00:19:19.151Z,18.60
2018-05-16T00:22:08.949Z,18.62
2018-05-16T00:23:08.923Z,18.60
2018-05-16T00:24:14.623Z,18.44
2018-05-16T00:26:12.605Z,18.30
2018-05-16T00:27:13.617Z,18.29
2018-05-16T00:28:08.915Z,18.27
2018-05-16T00:29:08.934Z,18.21
2018-05-16T00:30:08.928Z,18.17
2018-05-16T00:32:57.128Z,18.05
2018-05-16T00:35:13.772Z,18.07
2018-05-16T00:36:13.359Z,18.02
2018-05-16T00:37:13.366Z,17.89
2018-05-16T00:38:13.357Z,17.84
2018-05-16T00:39:13.351Z,17.86
2018-05-16T00:40:13.366Z,17.79
2018-05-16T00:41:13.364Z,17.78
2018-05-16T00:42:13.363Z,17.87
2018-05-16T00:43:13.399Z,17.79
2018-05-16T00:44:13.373Z,17.84
2018-05-16T00:45:13.382Z,17.90
2018-05-16T00:46:13.385Z,17.89
2018-05-16T00:47:13.393Z,17.81
2018-05-16T00:48:13.395Z,17.75
2018-05-16T00:49:13.392Z,17.75
2018-05-16T00:50:13.392Z,17.70
2018-05-16T00:51:13.402Z,17.56
2018-05-16T00:52:13.408Z,17.46
2018-05-16T00:53:13.416Z,17.23
2018-05-16T00:54:13.416Z,17.16
2018-05-16T00:55:13.416Z,17.04
2018-05-16T00:56:13.418Z,16.88
2018-05-16T00:57:13.421Z,16.85
2018-05-16T00:58:13.432Z,16.71
2018-05-16T00:59:14.144Z,16.83
2018-05-16T01:00:13.430Z,16.85
2018-05-16T01:01:13.436Z,16.89
2018-05-16T01:02:13.435Z,16.81
2018-05-16T01:03:13.446Z,16.76
2018-05-16T01:04:13.445Z,16.86
2018-05-16T01:05:13.465Z,16.85
2018-05-16T01:06:13.449Z,16.82
2018-05-16T01:07:13.449Z,16.78
2018-05-16T01:08:13.458Z,16.66
2018-05-16T01:09:13.464Z,16.68
2018-05-16T01:10:13.462Z,16.76
2018-05-16T01:11:13.548Z,16.75
2018-05-16T01:12:13.475Z,16.75
2018-05-16T01:13:13.471Z,16.73
2018-05-16T01:14:13.478Z,16.76
2018-05-16T01:15:13.481Z,16.71
2018-05-16T01:16:13.485Z,16.82
2018-05-16T01:17:13.524Z,16.83
2018-05-16T01:18:13.494Z,16.82
2018-05-16T01:19:13.498Z,16.86
2018-05-16T01:20:13.503Z,16.88
2018-05-16T01:21:13.496Z,16.86
2018-05-16T01:22:13.499Z,17.03
2018-05-16T01:23:13.519Z,17.00
2018-05-16T01:24:13.520Z,17.00
2018-05-16T01:25:13.507Z,17.07
2018-05-16T01:26:13.512Z,17.03
2018-05-16T01:27:13.541Z,17.03
2018-05-16T01:28:13.530Z,16.93
2018-05-16T01:29:13.522Z,16.86
2018-05-16T01:30:13.552Z,16.94
2018-05-16T01:31:13.533Z,16.88
2018-05-16T01:32:13.544Z,16.78
2018-05-16T01:33:13.537Z,16.81
2018-05-16T01:34:13.534Z,16.79
2018-05-16T01:35:13.538Z,16.85
2018-05-16T01:36:13.545Z,16.85
2018-05-16T01:37:13.556Z,16.82
2018-05-16T01:38:13.552Z,16.88
2018-05-16T01:39:13.564Z,16.85
2018-05-16T01:40:14.157Z,16.91
2018-05-16T01:41:13.569Z,16.98
2018-05-16T01:42:13.565Z,16.94
2018-05-16T01:43:13.580Z,16.94
2018-05-16T01:44:13.592Z,16.79
2018-05-16T01:45:13.579Z,16.85
2018-05-16T01:46:13.578Z,16.78
2018-05-16T01:47:13.579Z,16.68
2018-05-16T01:48:13.590Z,16.58
2018-05-16T01:49:13.592Z,16.53
2018-05-16T01:50:13.598Z,16.46
2018-05-16T01:51:13.604Z,16.43
2018-05-16T01:52:13.608Z,16.39
2018-05-16T01:53:13.608Z,16.43
2018-05-16T01:54:13.598Z,16.43
2018-05-16T01:55:13.607Z,16.38
2018-05-16T01:56:13.616Z,16.43
2018-05-16T01:57:13.619Z,16.46
2018-05-16T01:58:13.619Z,16.28
2018-05-16T01:59:13.617Z,16.25
2018-05-16T02:00:13.628Z,16.27
2018-05-16T02:01:13.632Z,16.11
2018-05-16T02:02:13.631Z,16.04
2018-05-16T02:03:13.634Z,16.09
2018-05-16T02:04:13.627Z,16.04
2018-05-16T02:05:13.643Z,16.04
2018-05-16T02:06:13.639Z,16.07
2018-05-16T02:07:13.654Z,16.08
2018-05-16T02:08:13.688Z,16.08
2018-05-16T02:09:13.656Z,16.05
2018-05-16T02:10:13.657Z,16.01
2018-05-16T02:11:13.682Z,15.96
2018-05-16T02:12:13.671Z,15.94
2018-05-16T02:13:13.660Z,15.89
2018-05-16T02:14:13.665Z,15.84
2018-05-16T02:15:13.692Z,15.93
2018-05-16T02:16:13.684Z,15.94
2018-05-16T02:17:13.680Z,15.93
2018-05-16T02:18:13.682Z,15.93
2018-05-16T02:19:13.688Z,15.78
2018-05-16T02:20:13.696Z,15.80
2018-05-16T02:21:13.759Z,15.87
2018-05-16T02:22:13.694Z,15.87
2018-05-16T02:23:13.699Z,15.92
2018-05-16T02:24:13.704Z,15.94
2018-05-16T02:25:13.705Z,15.87
2018-05-16T02:26:13.712Z,15.86
2018-05-16T02:27:13.707Z,15.75
2018-05-16T02:28:13.710Z,15.75
2018-05-16T02:29:13.727Z,15.72
2018-05-16T02:30:13.723Z,15.87
2018-05-16T02:31:13.719Z,15.76
2018-05-16T02:32:13.728Z,15.72
2018-05-16T02:33:13.727Z,15.65
2018-05-16T02:34:13.740Z,15.80
2018-05-16T02:35:13.736Z,15.69
2018-05-16T02:36:13.741Z,15.84
2018-05-16T02:37:13.737Z,15.72
2018-05-16T02:38:13.735Z,15.71
2018-05-16T02:39:13.744Z,15.64
2018-05-16T02:40:13.750Z,15.75
2018-05-16T02:41:13.743Z,15.74
2018-05-16T02:42:13.762Z,15.71
2018-05-16T02:43:13.764Z,15.71
2018-05-16T02:44:13.758Z,15.67
2018-05-16T02:45:13.771Z,15.69
2018-05-16T02:46:13.768Z,15.74
2018-05-16T02:47:13.813Z,15.65
2018-05-16T02:48:13.783Z,15.64
2018-05-16T02:49:13.778Z,15.65
2018-05-16T02:50:13.787Z,15.59
2018-05-16T02:51:13.785Z,15.46
2018-05-16T02:52:13.784Z,15.62
2018-05-16T02:53:13.797Z,15.47
2018-05-16T02:54:13.794Z,15.50
2018-05-16T02:55:13.805Z,15.54
2018-05-16T02:56:13.803Z,15.47
2018-05-16T02:57:13.806Z,15.54
2018-05-16T02:58:13.809Z,15.53
2018-05-16T02:59:13.800Z,15.41
2018-05-16T03:00:13.871Z,15.31
2018-05-16T03:01:13.810Z,15.34
2018-05-16T03:02:13.951Z,15.32
2018-05-16T03:03:13.819Z,15.29
2018-05-16T03:04:13.826Z,15.35
2018-05-16T03:05:13.824Z,15.19
2018-05-16T03:06:13.836Z,15.21
2018-05-16T03:07:13.835Z,15.11
2018-05-16T03:08:13.834Z,15.16
2018-05-16T03:09:13.839Z,15.17
2018-05-16T03:10:13.858Z,15.20
2018-05-16T03:11:13.861Z,15.23
2018-05-16T03:12:13.848Z,15.11
2018-05-16T03:13:13.850Z,15.14
2018-05-16T03:14:13.849Z,15.10
2018-05-16T03:15:13.947Z,15.19
2018-05-16T03:16:13.856Z,15.16
2018-05-16T03:17:13.865Z,15.13
2018-05-16T03:18:13.864Z,15.19
2018-05-16T03:19:13.870Z,15.13
2018-05-16T03:20:13.866Z,15.09
2018-05-16T03:21:13.880Z,15.20
2018-05-16T03:27:49.683Z,15.13
2018-05-16T03:28:49.656Z,15.09
2018-05-16T03:29:49.658Z,15.07
2018-05-16T03:30:49.665Z,15.09
2018-05-16T03:31:49.671Z,14.96
2018-05-16T03:32:49.680Z,14.94
2018-05-16T03:33:49.664Z,14.98
2018-05-16T03:34:49.664Z,14.91
2018-05-16T03:35:49.679Z,15.02
2018-05-16T03:36:49.686Z,15.01
2018-05-16T03:37:49.687Z,14.96
2018-05-16T03:38:49.687Z,15.09
2018-05-16T03:39:49.680Z,15.09
2018-05-16T03:40:49.690Z,15.07
2018-05-16T03:41:49.687Z,14.94
2018-05-16T03:42:49.703Z,15.07
2018-05-16T03:43:49.705Z,15.02
2018-05-16T03:44:49.698Z,15.09
2018-05-16T03:45:50.642Z,14.91
2018-05-16T03:46:49.715Z,14.83
2018-05-16T03:47:50.643Z,14.81
2018-05-16T03:48:49.731Z,14.89
2018-05-16T03:49:49.721Z,14.92
2018-05-16T03:50:49.738Z,14.84
2018-05-16T03:51:49.722Z,14.95
2018-05-16T03:52:49.788Z,14.84
2018-05-16T03:53:49.728Z,14.88
2018-05-16T03:54:49.745Z,15.01
2018-05-16T03:55:49.749Z,14.91
2018-05-16T03:56:49.741Z,14.94
2018-05-16T03:57:49.746Z,14.94
2018-05-16T03:58:49.743Z,14.99
2018-05-16T03:59:49.751Z,14.98
2018-05-16T04:00:49.754Z,14.95
2018-05-16T04:01:49.764Z,15.02
2018-05-16T04:02:49.762Z,14.98
2018-05-16T04:03:49.756Z,15.01
2018-05-16T04:04:49.763Z,14.98
2018-05-16T04:05:49.783Z,15.09
2018-05-16T04:06:49.765Z,15.03
2018-05-16T04:07:49.776Z,15.17
2018-05-16T04:08:49.778Z,15.14
2018-05-16T04:09:49.773Z,15.10
2018-05-16T04:10:49.782Z,15.20
2018-05-16T04:11:49.781Z,15.21
2018-05-16T04:12:49.786Z,15.25
2018-05-16T04:13:49.786Z,15.16
2018-05-16T04:14:49.781Z,15.21
2018-05-16T04:15:49.802Z,15.21
2018-05-16T04:16:49.799Z,15.20
2018-05-16T04:17:49.801Z,15.23
2018-05-16T04:18:50.656Z,15.20
2018-05-16T04:19:49.811Z,15.34
2018-05-16T04:20:49.816Z,15.27
2018-05-16T04:21:49.813Z,15.34
2018-05-16T04:22:49.807Z,15.34
2018-05-16T04:23:49.821Z,15.43
2018-05-16T04:24:49.823Z,15.47
2018-05-16T04:25:49.830Z,15.50
2018-05-16T04:26:49.831Z,15.59
2018-05-16T04:27:49.842Z,15.56
2018-05-16T04:28:49.934Z,15.68
2018-05-16T04:29:49.836Z,15.54
2018-05-16T04:30:49.833Z,15.67
2018-05-16T04:31:50.661Z,15.65
2018-05-16T04:32:49.833Z,15.67
2018-05-16T04:33:49.852Z,15.62
2018-05-16T04:34:49.850Z,15.65
2018-05-16T04:35:49.848Z,15.72
2018-05-16T04:36:49.855Z,15.74
2018-05-16T04:37:49.851Z,15.74
2018-05-16T04:38:49.873Z,15.82
2018-05-16T04:39:49.855Z,15.83
2018-05-16T04:40:49.863Z,15.82
2018-05-16T04:41:49.886Z,15.87
2018-05-16T04:42:49.865Z,15.75
2018-05-16T04:43:49.886Z,15.83
2018-05-16T04:44:49.882Z,15.84
2018-05-16T04:45:49.883Z,15.89
2018-05-16T04:46:49.880Z,16.02
2018-05-16T04:47:49.889Z,15.92
2018-05-16T04:48:49.894Z,16.01
2018-05-16T04:49:49.894Z,16.05
2018-05-16T04:50:49.904Z,16.25
2018-05-16T04:51:49.897Z,16.17
2018-05-16T04:52:49.923Z,16.33
2018-05-16T04:53:49.893Z,16.30
2018-05-16T04:54:49.908Z,16.33
2018-05-16T04:55:49.913Z,16.34
2018-05-16T04:56:49.911Z,16.34
2018-05-16T04:57:49.910Z,16.42
2018-05-16T04:58:49.910Z,16.43
2018-05-16T04:59:49.925Z,16.43
2018-05-16T05:00:49.933Z,16.43
2018-05-16T05:01:49.929Z,16.52
2018-05-16T05:02:49.932Z,16.57
2018-05-16T05:03:49.928Z,16.57
2018-05-16T05:04:49.936Z,16.49
2018-05-16T05:05:49.931Z,16.58
2018-05-16T05:06:49.938Z,16.58
2018-05-16T05:07:49.936Z,16.57
2018-05-16T05:08:49.950Z,16.67
2018-05-16T05:09:49.947Z,16.64
2018-05-16T05:10:49.969Z,16.75
2018-05-16T05:11:49.966Z,16.68
2018-05-16T05:12:49.960Z,16.81
2018-05-16T05:13:49.963Z,16.73
2018-05-16T05:14:49.972Z,16.81
2018-05-16T05:15:49.972Z,16.88
2018-05-16T05:16:49.975Z,16.94
2018-05-16T05:17:49.976Z,16.93
2018-05-16T05:18:50.071Z,17.07
2018-05-16T05:19:49.984Z,17.16
2018-05-16T05:20:49.991Z,17.25
2018-05-16T05:21:49.993Z,17.36
2018-05-16T05:22:50.002Z,17.40
2018-05-16T05:23:49.997Z,17.63
2018-05-16T05:24:49.992Z,18.00
2018-05-16T05:25:49.999Z,18.63
2018-05-16T05:26:50.005Z,19.74
2018-05-16T05:27:50.004Z,20.94
2018-05-16T05:28:50.000Z,21.54
2018-05-16T05:29:50.013Z,22.07
2018-05-16T05:30:50.016Z,22.52
2018-05-16T05:31:50.014Z,22.94
2018-05-16T05:32:50.681Z,23.05
2018-05-16T05:33:50.027Z,22.80
2018-05-16T05:34:50.029Z,22.94
2018-05-16T05:35:50.037Z,23.27
2018-05-16T05:36:50.045Z,23.72
2018-05-16T05:37:50.062Z,23.98
2018-05-16T05:38:50.048Z,24.10
2018-05-16T05:39:50.048Z,23.47
2018-05-16T05:40:50.068Z,23.84
2018-05-16T05:41:50.069Z,23.63
2018-05-16T05:42:50.060Z,24.22
2018-05-16T05:43:50.064Z,24.81
2018-05-16T05:44:50.065Z,24.65
2018-05-16T05:45:50.070Z,24.43
2018-05-16T05:46:50.081Z,24.81
2018-05-16T05:47:50.078Z,25.06
2018-05-16T05:48:50.085Z,25.70
2018-05-16T05:49:50.098Z,25.75
2018-05-16T05:50:50.139Z,25.75
2018-05-16T05:51:50.107Z,25.55
2018-05-16T05:52:50.111Z,25.51
2018-05-16T05:53:50.117Z,25.40
2018-05-16T05:54:50.125Z,24.46
2018-05-16T05:55:50.129Z,24.64
2018-05-16T05:56:50.130Z,25.46
2018-05-16T05:57:50.138Z,25.43
2018-05-16T05:58:50.151Z,23.84
2018-05-16T05:59:50.156Z,24.47
2018-05-16T06:00:50.696Z,24.37
2018-05-16T06:01:50.177Z,23.83
2018-05-16T06:02:50.181Z,23.32
2018-05-16T06:03:50.178Z,23.58
2018-05-16T06:04:50.181Z,23.63
2018-05-16T06:05:50.185Z,23.50
2018-05-16T06:06:50.200Z,23.66
2018-05-16T06:07:50.213Z,22.67
2018-05-16T06:08:50.208Z,21.94
2018-05-16T06:09:50.207Z,21.56
2018-05-16T06:10:50.219Z,21.27
2018-05-16T06:11:50.224Z,20.95
2018-05-16T06:12:50.373Z,21.09
2018-05-16T06:13:50.228Z,21.21
2018-05-16T06:14:50.263Z,21.35
2018-05-16T06:15:50.250Z,21.31
2018-05-16T06:16:50.255Z,21.44
2018-05-16T06:17:50.280Z,21.46
2018-05-16T06:18:50.264Z,21.09
2018-05-16T06:19:50.325Z,22.03
2018-05-16T06:20:50.281Z,22.47
2018-05-16T06:21:50.268Z,22.73
2018-05-16T06:22:50.287Z,23.22
2018-05-16T06:23:50.294Z,24.08
2018-05-16T06:24:50.296Z,25.10
2018-05-16T06:25:50.302Z,25.69
2018-05-16T06:26:50.305Z,25.82
2018-05-16T06:27:50.738Z,25.42
2018-05-16T06:28:50.314Z,24.25
2018-05-16T06:29:50.320Z,23.98
2018-05-16T06:30:50.323Z,24.21
2018-05-16T06:31:50.354Z,24.27
2018-05-16T06:32:50.454Z,25.30
2018-05-16T06:33:51.234Z,26.10
2018-05-16T06:34:50.470Z,25.76
2018-05-16T06:35:50.357Z,25.28
2018-05-16T06:36:50.374Z,25.25
2018-05-16T06:37:50.409Z,25.36
2018-05-16T06:38:50.389Z,25.23
2018-05-16T06:39:50.396Z,25.14
2018-05-16T06:40:50.399Z,25.14
2018-05-16T06:41:50.404Z,25.46
2018-05-16T06:42:50.424Z,25.42
2018-05-16T06:43:50.417Z,25.05
2018-05-16T06:44:50.423Z,25.13
2018-05-16T06:45:50.724Z,25.14
2018-05-16T06:46:50.502Z,25.24
2018-05-16T06:47:50.452Z,25.52
2018-05-16T06:48:50.457Z,25.76
2018-05-16T06:49:50.503Z,25.38
2018-05-16T06:50:51.344Z,25.35
2018-05-16T06:51:50.492Z,25.45
2018-05-16T06:52:50.521Z,25.02
2018-05-16T06:53:50.499Z,24.06
2018-05-16T06:54:50.537Z,23.72
2018-05-16T06:55:50.523Z,23.90
2018-05-16T06:56:50.527Z,23.53
2018-05-16T06:57:50.559Z,23.33
2018-05-16T06:58:51.247Z,22.65
2018-05-16T06:59:50.531Z,22.30
2018-05-16T07:00:50.565Z,21.92
2018-05-16T07:01:50.618Z,21.50
2018-05-16T07:02:50.607Z,21.14
2018-05-16T07:03:50.596Z,20.28
2018-05-16T07:04:50.583Z,20.02
2018-05-16T07:05:51.232Z,19.98
2018-05-16T07:06:50.591Z,19.88
2018-05-16T07:07:50.620Z,19.84
2018-05-16T07:08:50.614Z,19.80
2018-05-16T07:09:50.618Z,19.68
2018-05-16T07:10:50.625Z,19.73
2018-05-16T07:11:50.688Z,19.55
2018-05-16T07:12:50.688Z,19.59
2018-05-16T07:13:50.652Z,19.59
2018-05-16T07:14:50.657Z,19.58
2018-05-16T07:15:50.693Z,19.63
2018-05-16T07:16:50.665Z,19.63
2018-05-16T07:17:50.701Z,19.62
2018-05-16T07:18:50.679Z,19.58
2018-05-16T07:19:50.670Z,19.55
2018-05-16T07:20:50.708Z,19.66
2018-05-16T07:21:51.235Z,19.48
2018-05-16T07:22:50.748Z,19.58
2018-05-16T07:23:50.717Z,19.58
2018-05-16T07:24:51.264Z,19.18
2018-05-16T07:25:50.711Z,19.26
2018-05-16T07:26:50.719Z,19.40
2018-05-16T07:27:51.317Z,19.43
2018-05-16T07:28:50.725Z,19.46
2018-05-16T07:29:51.741Z,19.29
2018-05-16T07:30:50.726Z,19.25
2018-05-16T07:31:50.800Z,19.23
2018-05-16T07:32:50.746Z,19.16
2018-05-16T07:33:50.764Z,19.23
2018-05-16T07:34:50.787Z,19.28
2018-05-16T07:35:50.752Z,19.28
2018-05-16T07:36:50.766Z,19.28
2018-05-16T07:37:50.767Z,19.33
2018-05-16T07:38:50.770Z,19.33
2018-05-16T07:39:50.795Z,19.26
2018-05-16T07:40:50.912Z,19.26
2018-05-16T07:41:50.867Z,19.29
2018-05-16T07:42:51.806Z,19.41
2018-05-16T07:43:50.795Z,19.26
2018-05-16T07:44:50.792Z,19.23
2018-05-16T07:45:50.796Z,19.28
2018-05-16T07:46:50.814Z,19.28
2018-05-16T07:47:50.816Z,19.21
2018-05-16T07:48:50.814Z,19.21
2018-05-16T07:49:50.837Z,19.21
2018-05-16T07:50:50.823Z,19.10
2018-05-16T07:51:50.855Z,19.25
2018-05-16T07:52:50.834Z,19.18
2018-05-16T07:53:50.845Z,19.21
2018-05-16T07:54:50.848Z,19.22
2018-05-16T07:55:50.962Z,19.18
2018-05-16T07:56:50.857Z,19.10
2018-05-16T07:57:50.853Z,19.32
2018-05-16T07:58:51.751Z,19.50
2018-05-16T07:59:50.868Z,19.50
2018-05-16T08:00:50.927Z,19.62
2018-05-16T08:01:50.891Z,19.78
2018-05-16T08:02:50.884Z,19.84
2018-05-16T08:03:50.899Z,19.96
2018-05-16T08:04:50.891Z,19.96
2018-05-16T08:05:50.878Z,20.05
2018-05-16T08:06:50.894Z,20.26
2018-05-16T08:07:50.953Z,20.38
2018-05-16T08:08:50.989Z,20.36
2018-05-16T08:09:50.896Z,20.39
2018-05-16T08:10:50.902Z,20.35
2018-05-16T08:11:50.909Z,20.61
2018-05-16T08:12:50.915Z,20.58
2018-05-16T08:13:50.926Z,20.54
2018-05-16T08:14:50.926Z,20.48
2018-05-16T08:15:50.938Z,20.33
2018-05-16T08:16:50.944Z,20.33
2018-05-16T08:17:51.003Z,20.31
2018-05-16T08:18:50.940Z,20.29
2018-05-16T08:19:50.960Z,20.43
2018-05-16T08:20:50.943Z,20.54
2018-05-16T08:21:51.015Z,20.64
2018-05-16T08:22:50.972Z,20.67
2018-05-16T08:23:51.080Z,20.70
2018-05-16T08:24:50.975Z,20.82
2018-05-16T08:25:50.984Z,20.99
2018-05-16T08:26:50.987Z,21.25
2018-05-16T08:27:51.809Z,21.86
2018-05-16T08:29:03.528Z,22.10
2018-05-16T08:29:51.174Z,22.20
2018-05-16T08:30:55.393Z,21.88
2018-05-16T08:32:04.854Z,21.83
2018-05-16T08:32:54.944Z,21.67
2018-05-16T08:34:01.417Z,21.86
2018-05-16T08:34:51.212Z,21.84
2018-05-16T08:35:51.277Z,22.30
2018-05-16T08:36:51.739Z,22.20
2018-05-16T08:39:24.247Z,22.31
2018-05-16T08:41:36.525Z,22.51
2018-05-16T08:42:36.521Z,22.94
2018-05-16T08:43:36.483Z,23.68
2018-05-16T08:44:36.524Z,23.60
2018-05-16T08:45:36.887Z,23.55
2018-05-16T08:46:36.560Z,23.69
2018-05-16T08:47:36.504Z,23.23
2018-05-16T08:48:36.650Z,23.19
2018-05-16T08:49:36.614Z,23.22
2018-05-16T08:50:36.532Z,23.01
2018-05-16T08:51:36.534Z,23.33
2018-05-16T08:52:36.599Z,22.94
2018-05-16T08:53:36.545Z,23.23
2018-05-16T08:54:36.565Z,23.65
2018-05-16T08:55:36.565Z,23.55
2018-05-16T08:56:36.570Z,23.55
2018-05-16T08:57:36.576Z,23.35
2018-05-16T08:58:36.591Z,23.33
2018-05-16T08:59:36.670Z,23.46
2018-05-16T09:00:36.843Z,24.43
2018-05-16T09:01:36.635Z,25.46
2018-05-16T09:02:36.653Z,25.83
2018-05-16T09:03:36.632Z,26.45
2018-05-16T09:04:36.669Z,26.23
2018-05-16T09:05:36.681Z,26.87
2018-05-16T09:06:36.645Z,26.50
2018-05-16T09:07:36.649Z,26.09
2018-05-16T09:08:36.789Z,25.17
2018-05-16T09:09:37.474Z,24.93
2018-05-16T09:10:36.738Z,24.78
2018-05-16T09:11:36.775Z,24.45
2018-05-16T09:12:36.759Z,24.53
2018-05-16T09:13:36.741Z,24.60
2018-05-16T09:14:36.777Z,24.73
2018-05-16T09:15:36.709Z,24.91
2018-05-16T09:16:37.801Z,24.90
2018-05-16T09:17:36.820Z,25.18
2018-05-16T09:18:36.762Z,25.36
2018-05-16T09:19:36.804Z,25.60
2018-05-16T09:20:36.791Z,25.62
2018-05-16T09:21:36.916Z,25.92
2018-05-16T09:22:36.844Z,25.92
2018-05-16T09:23:36.810Z,25.25
2018-05-16T09:24:36.828Z,25.02
2018-05-16T09:25:36.810Z,25.21
2018-05-16T09:26:36.926Z,25.27
2018-05-16T09:27:37.486Z,25.62
2018-05-16T09:28:36.864Z,25.43
2018-05-16T09:29:36.959Z,24.90
2018-05-16T09:30:36.861Z,24.84
2018-05-16T09:31:36.909Z,24.39
2018-05-16T09:32:37.484Z,24.06
2018-05-16T09:33:37.141Z,23.68
2018-05-16T09:34:36.972Z,23.42
2018-05-16T09:35:36.979Z,23.15
2018-05-16T09:36:37.490Z,23.15
2018-05-16T09:37:37.027Z,23.02
2018-05-16T09:38:36.981Z,22.77
2018-05-16T09:39:37.003Z,22.62
2018-05-16T09:40:37.098Z,22.57
2018-05-16T09:41:37.017Z,22.68
2018-05-16T09:42:37.040Z,22.76
2018-05-16T09:43:37.041Z,22.88
2018-05-16T09:44:37.079Z,23.15
2018-05-16T09:45:37.037Z,23.07
2018-05-16T09:46:37.007Z,23.27
2018-05-16T09:47:37.069Z,23.40
2018-05-16T09:48:37.080Z,23.33
2018-05-16T09:49:37.067Z,23.54
2018-05-16T09:50:37.218Z,23.58
2018-05-16T09:51:37.086Z,24.15
2018-05-16T09:52:37.149Z,24.30
2018-05-16T09:53:37.127Z,24.24
2018-05-16T09:54:37.129Z,24.20
2018-05-16T09:55:37.204Z,24.05
2018-05-16T09:56:37.129Z,24.02
2018-05-16T09:57:37.169Z,23.94
2018-05-16T09:58:37.138Z,23.33
2018-05-16T09:59:38.010Z,23.43
2018-05-16T10:00:37.222Z,23.83
2018-05-16T10:01:37.212Z,24.06
2018-05-16T10:02:37.179Z,24.57
2018-05-16T10:03:37.134Z,24.95
2018-05-16T10:04:37.172Z,24.88
2018-05-16T10:05:37.175Z,25.14
2018-05-16T10:06:37.170Z,24.88
2018-05-16T10:07:38.002Z,24.43
2018-05-16T10:08:37.203Z,24.21
2018-05-16T10:09:37.261Z,24.15
2018-05-16T10:10:37.200Z,23.91
2018-05-16T10:11:37.248Z,24.10
2018-05-16T10:12:37.252Z,24.24
2018-05-16T10:13:37.253Z,24.21
2018-05-16T10:14:37.253Z,24.27
2018-05-16T10:15:37.270Z,24.30
2018-05-16T10:16:37.297Z,24.30
2018-05-16T10:17:37.268Z,24.18
2018-05-16T10:18:37.368Z,24.25
2018-05-16T10:19:37.277Z,24.58
2018-05-16T10:20:37.439Z,24.95
2018-05-16T10:21:37.291Z,24.65
2018-05-16T10:22:37.322Z,24.18
2018-05-16T10:23:37.389Z,23.60
2018-05-16T10:24:37.306Z,23.51
2018-05-16T10:25:37.309Z,23.35
2018-05-16T10:26:37.325Z,23.32
2018-05-16T10:27:37.338Z,23.47
2018-05-16T10:28:38.095Z,23.39
2018-05-16T10:29:37.349Z,23.31
2018-05-16T10:30:37.357Z,23.32
2018-05-16T10:31:37.359Z,23.35
2018-05-16T10:32:37.362Z,23.46
2018-05-16T10:33:37.391Z,23.61
2018-05-16T10:34:37.458Z,23.58
2018-05-16T10:35:37.396Z,23.69
2018-05-16T10:36:37.399Z,23.58
2018-05-16T10:37:37.401Z,23.46
2018-05-16T10:38:37.440Z,23.58
2018-05-16T10:39:37.437Z,23.70
2018-05-16T10:40:37.423Z,23.80
2018-05-16T10:41:37.474Z,24.00
2018-05-16T10:42:37.435Z,24.13
2018-05-16T10:43:37.460Z,24.09
2018-05-16T10:44:37.482Z,23.93
2018-05-16T10:45:37.505Z,24.08
2018-05-16T10:47:59.099Z,24.37
2018-05-16T10:48:59.011Z,24.28
2018-05-16T10:49:59.829Z,24.30
2018-05-16T10:50:59.197Z,24.12
2018-05-16T10:51:59.072Z,24.20
2018-05-16T10:52:59.035Z,24.22
2018-05-16T10:53:59.122Z,24.49
2018-05-16T10:54:59.117Z,24.30
2018-05-16T10:55:59.154Z,24.46
2018-05-16T10:56:59.145Z,24.69
2018-05-16T10:58:00.027Z,24.90
2018-05-16T10:58:59.186Z,24.93
2018-05-16T10:59:59.112Z,24.99
2018-05-16T11:00:59.213Z,25.08
2018-05-16T11:01:59.177Z,25.24
2018-05-16T11:02:59.176Z,25.43
2018-05-16T11:03:59.730Z,25.52
2018-05-16T11:04:59.261Z,25.45
2018-05-16T11:05:59.141Z,25.33
2018-05-16T11:06:59.190Z,25.43
2018-05-16T11:07:59.183Z,25.06
2018-05-16T11:08:59.172Z,24.78
2018-05-16T11:09:59.200Z,24.50
2018-05-16T11:11:00.147Z,24.47
2018-05-16T11:11:59.541Z,24.45
2018-05-16T11:13:00.134Z,24.45
2018-05-16T11:13:59.215Z,24.64
2018-05-16T11:14:59.304Z,24.61
2018-05-16T11:15:59.273Z,24.61
2018-05-16T11:16:59.306Z,24.57
2018-05-16T11:17:59.292Z,24.45
2018-05-16T11:18:59.252Z,24.32
2018-05-16T11:19:59.423Z,24.43
2018-05-16T11:20:59.389Z,24.35
2018-05-16T11:21:59.418Z,24.39
2018-05-16T11:22:59.311Z,24.64
2018-05-16T11:23:59.319Z,24.61
2018-05-16T11:24:59.409Z,24.84
2018-05-16T11:25:59.467Z,24.91
2018-05-16T11:27:00.236Z,24.73
2018-05-16T11:27:59.776Z,24.84
2018-05-16T11:28:59.361Z,24.80
2018-05-16T11:29:59.383Z,24.93
2018-05-16T11:31:00.432Z,24.90
2018-05-16T11:32:01.034Z,24.76
2018-05-16T11:32:59.478Z,24.73
2018-05-16T11:33:59.438Z,24.85
2018-05-16T11:34:59.791Z,24.76
2018-05-16T11:35:59.663Z,24.95
2018-05-16T11:36:59.453Z,24.99
2018-05-16T11:38:00.355Z,24.69
2018-05-16T11:38:59.410Z,24.61
2018-05-16T11:39:59.499Z,24.81
2018-05-16T11:40:59.479Z,24.98
2018-05-16T11:41:59.560Z,25.03
2018-05-16T11:42:59.847Z,25.05
2018-05-16T11:43:59.507Z,25.13
2018-05-16T11:44:59.478Z,25.08
2018-05-16T11:45:59.635Z,25.05
2018-05-16T11:46:59.621Z,25.05
2018-05-16T11:47:59.593Z,25.13
2018-05-16T11:48:59.686Z,24.99
2018-05-16T11:49:59.611Z,24.99
2018-05-16T11:50:59.525Z,25.00
2018-05-16T11:51:59.747Z,25.24
2018-05-16T11:53:34.295Z,25.43
2018-05-16T11:55:30.425Z,25.00
2018-05-16T11:56:00.391Z,24.65
2018-05-16T11:56:59.644Z,24.78
2018-05-16T11:57:59.794Z,24.88
2018-05-16T11:59:00.388Z,25.14
2018-05-16T11:59:59.641Z,25.33
2018-05-16T12:00:59.621Z,25.51
2018-05-16T12:01:59.640Z,25.62
2018-05-16T12:02:59.774Z,25.27
2018-05-16T12:03:59.635Z,25.43
2018-05-16T12:04:59.972Z,25.20
2018-05-16T12:06:00.924Z,25.15
2018-05-16T12:06:59.876Z,24.84
2018-05-16T12:07:59.718Z,24.87
2018-05-16T12:08:59.610Z,24.99
2018-05-16T12:09:59.703Z,25.09
2018-05-16T12:10:59.695Z,24.98
2018-05-16T12:11:59.768Z,24.90
2018-05-16T12:12:59.794Z,24.77
2018-05-16T12:13:59.713Z,24.50
2018-05-16T12:15:00.036Z,24.50
2018-05-16T12:15:59.746Z,24.65
2018-05-16T12:16:59.879Z,24.93
2018-05-16T12:18:01.174Z,25.10
2018-05-16T12:18:59.914Z,24.99
2018-05-16T12:19:59.654Z,25.36
2018-05-16T12:20:59.697Z,25.39
2018-05-16T12:21:59.684Z,25.42
2018-05-16T12:22:59.872Z,25.50
2018-05-16T12:23:59.809Z,25.40
2018-05-16T12:24:59.901Z,25.28
2018-05-16T12:25:59.893Z,25.36
2018-05-16T12:26:59.750Z,25.64
2018-05-16T12:28:01.037Z,25.70
2018-05-16T12:29:02.896Z,25.51
2018-05-16T12:30:00.684Z,25.30
2018-05-16T12:31:03.824Z,25.32
2018-05-16T12:31:59.934Z,25.23
2018-05-16T12:33:00.412Z,25.14
2018-05-16T12:34:00.416Z,25.13
2018-05-16T12:35:00.184Z,25.05
2018-05-16T12:35:59.943Z,24.78
2018-05-16T12:37:00.442Z,24.90
2018-05-16T12:37:59.985Z,24.96
2018-05-16T12:39:00.416Z,24.95
2018-05-16T12:40:01.043Z,24.62
2018-05-16T12:40:59.985Z,24.64
2018-05-16T12:41:59.867Z,24.65
2018-05-16T12:42:59.874Z,24.65
2018-05-16T12:44:00.053Z,24.58
2018-05-16T12:44:59.921Z,24.57
2018-05-16T12:46:00.530Z,24.35
2018-05-16T12:47:00.474Z,24.64
2018-05-16T12:48:00.009Z,24.90
2018-05-16T12:49:00.146Z,24.98
2018-05-16T12:49:59.897Z,25.09
2018-05-16T12:51:00.005Z,25.10
2018-05-16T12:52:00.058Z,24.80
2018-05-16T12:53:00.460Z,24.64
2018-05-16T12:53:59.999Z,24.22
2018-05-16T12:54:59.953Z,24.24
2018-05-16T12:56:00.026Z,24.46
2018-05-16T12:57:00.705Z,24.65
2018-05-16T12:57:59.967Z,24.83
2018-05-16T12:59:00.307Z,24.91
2018-05-16T13:00:00.279Z,25.13
2018-05-16T13:01:00.301Z,24.99
2018-05-16T13:02:00.238Z,24.77
2018-05-16T13:03:00.111Z,24.65
2018-05-16T13:04:01.040Z,24.64
2018-05-16T13:05:00.266Z,24.52
2018-05-16T13:06:01.196Z,24.88
2018-05-16T13:07:01.700Z,25.14
2018-05-16T13:08:00.362Z,25.24
2018-05-16T13:09:01.537Z,25.32
2018-05-16T13:10:00.618Z,25.25
2018-05-16T13:11:00.591Z,25.23